createdAt,value
2023-03-26T00:01:25.115Z,94586.94
2023-03-26T00:03:54.062Z,94600.84
2023-03-26T00:06:23.417Z,94599.91
2023-03-26T00:08:50.396Z,94604.09
2023-03-26T00:11:19.558Z,94602.81
2023-03-26T00:13:47.872Z,94603.78
2023-03-26T00:16:17.269Z,94598.28
2023-03-26T00:18:44.699Z,94600.88
2023-03-26T00:21:15.403Z,94585.88
2023-03-26T00:23:43.399Z,94583.91
2023-03-26T00:26:11.380Z,94577.66
2023-03-26T00:28:40.743Z,94569.56
2023-03-26T00:31:09.305Z,94572.16
2023-03-26T00:33:40.921Z,94563.94
2023-03-26T00:36:14.932Z,94575.72
2023-03-26T00:38:43.223Z,94568.59
2023-03-26T00:41:23.334Z,94576.66
2023-03-26T00:43:53.649Z,94565.84
2023-03-26T00:46:20.974Z,94570.84
2023-03-26T00:48:48.320Z,94573.09
2023-03-26T00:51:17.743Z,94575.50
2023-03-26T00:53:46.523Z,94566.63
2023-03-26T00:56:14.190Z,94571.47
2023-03-26T00:58:41.283Z,94561.16
2023-03-26T01:01:14.011Z,94570.84
2023-03-26T01:03:50.369Z,94566.31
2023-03-26T01:06:28.134Z,94572.75
2023-03-26T01:09:00.509Z,94574.38
2023-03-26T01:11:33.761Z,94581.66
2023-03-26T01:14:07.561Z,94575.69
2023-03-26T01:16:42.440Z,94584.06
2023-03-26T01:19:21.420Z,94586.81
2023-03-26T01:21:49.192Z,94582.47
2023-03-26T01:24:16.423Z,94585.38
2023-03-26T01:26:58.706Z,94584.09
2023-03-26T01:29:31.967Z,94586.84
2023-03-26T01:32:32.971Z,94598.16
2023-03-26T01:35:14.833Z,94589.28
2023-03-26T01:38:11.077Z,94597.19
2023-03-26T01:40:55.142Z,94598.31
2023-03-26T01:43:49.504Z,94590.25
2023-03-26T01:46:17.941Z,94598.00
2023-03-26T01:48:46.393Z,94604.13
2023-03-26T01:51:15.005Z,94604.28
2023-03-26T01:53:45.233Z,94606.72
2023-03-26T01:56:47.464Z,94604.28
2023-03-26T01:59:23.208Z,94614.13
2023-03-26T02:02:14.392Z,94599.75
2023-03-26T02:04:59.751Z,94599.44
2023-03-26T03:39:36.137Z,94650.38
2023-03-26T03:42:03.962Z,94665.88
2023-03-26T03:44:31.360Z,94651.06
2023-03-26T03:46:59.433Z,94660.41
2023-03-26T03:49:26.760Z,94650.72
2023-03-26T03:51:57.676Z,94648.16
2023-03-26T03:54:30.729Z,94659.44
2023-03-26T03:57:07.173Z,94660.88
2023-03-26T03:59:39.089Z,94669.75
2023-03-26T05:20:05.221Z,94768.38
2023-03-26T05:22:32.987Z,94771.16
2023-03-26T05:25:23.062Z,94779.69
2023-03-26T05:27:50.035Z,94783.59
2023-03-26T05:30:21.427Z,94788.47
2023-03-26T05:32:53.693Z,94779.63
2023-03-26T05:35:25.867Z,94776.44
2023-03-26T05:37:53.127Z,94772.25
2023-03-26T05:40:23.546Z,94772.31
2023-03-26T05:43:00.691Z,94780.88
2023-03-26T05:45:42.346Z,94772.66
2023-03-26T05:48:24.853Z,94790.25
2023-03-26T05:50:55.021Z,94796.59
2023-03-26T05:53:23.822Z,94793.06
2023-03-26T05:56:09.865Z,94783.88
2023-03-26T05:58:56.614Z,94781.31
2023-03-26T06:01:44.940Z,94779.56
2023-03-26T06:04:17.958Z,94780.34
2023-03-26T06:06:57.299Z,94790.88
2023-03-26T06:09:24.314Z,94779.41
2023-03-26T06:11:51.705Z,94770.22
2023-03-26T06:14:18.737Z,94772.31
2023-03-26T06:17:06.361Z,94772.47
2023-03-26T06:19:53.244Z,94773.97
2023-03-26T06:22:31.807Z,94783.66
2023-03-26T06:25:27.887Z,94784.94
2023-03-26T06:28:04.915Z,94782.06
2023-03-26T06:30:38.302Z,94777.84
2023-03-26T06:33:12.949Z,94769.28
2023-03-26T06:35:46.270Z,94774.59
2023-03-26T06:38:14.980Z,94765.56
2023-03-26T06:40:42.202Z,94769.78
2023-03-26T06:43:33.816Z,94761.69
2023-03-26T06:46:16.244Z,94772.19
2023-03-26T06:48:43.631Z,94777.19
2023-03-26T06:51:13.311Z,94775.56
2023-03-26T06:54:12.767Z,94799.31
2023-03-26T06:57:01.686Z,94793.50
2023-03-26T07:00:08.862Z,94790.75
2023-03-26T07:02:54.764Z,94793.97
2023-03-26T07:05:43.068Z,94797.88
2023-03-26T07:08:10.088Z,94803.03
2023-03-26T07:10:56.414Z,94791.06
2023-03-26T07:13:47.899Z,94792.53
2023-03-26T07:16:34.622Z,94782.03
2023-03-26T07:19:34.131Z,94791.41
2023-03-26T07:22:01.561Z,94791.38
2023-03-26T07:24:58.259Z,94788.47
2023-03-26T07:28:01.325Z,94781.66
2023-03-26T07:30:57.596Z,94789.06
2023-03-26T07:33:41.352Z,94771.72
2023-03-26T07:36:46.075Z,94772.78
2023-03-26T07:39:46.308Z,94766.63
2023-03-26T07:42:57.956Z,94774.03
2023-03-26T07:45:57.833Z,94774.03
2023-03-26T07:48:50.318Z,94759.78
2023-03-26T07:51:42.042Z,94766.81
2023-03-26T07:54:15.352Z,94767.06
2023-03-26T07:57:18.435Z,94756.50
2023-03-26T08:00:22.663Z,94760.34
2023-03-26T08:03:09.148Z,94762.41
2023-03-26T08:06:33.441Z,94752.25
2023-03-26T08:09:43.693Z,94752.97
2023-03-26T08:13:00.626Z,94751.31
2023-03-26T08:15:42.119Z,94744.97
2023-03-26T08:18:35.742Z,94754.75
2023-03-26T08:21:26.451Z,94765.69
2023-03-26T08:24:05.058Z,94763.88
2023-03-26T08:27:08.986Z,94762.72
2023-03-26T08:29:50.190Z,94766.53
2023-03-26T08:32:19.344Z,94760.91
2023-03-26T08:34:47.092Z,94749.59
2023-03-26T08:37:14.453Z,94750.06
2023-03-26T08:39:42.599Z,94742.72
2023-03-26T08:42:34.829Z,94750.50
2023-03-26T08:45:22.143Z,94761.84
2023-03-26T08:48:04.583Z,94748.72
2023-03-26T08:50:41.889Z,94752.13
2023-03-26T08:53:18.688Z,94749.13
2023-03-26T08:55:57.370Z,94749.41
2023-03-26T08:58:43.344Z,94754.72
2023-03-26T09:01:46.432Z,94756.06
2023-03-26T09:04:41.750Z,94749.06
2023-03-26T09:07:14.888Z,94759.47
2023-03-26T09:10:06.496Z,94749.22
2023-03-26T09:12:56.235Z,94743.09
2023-03-26T09:15:45.104Z,94739.09
2023-03-26T09:18:33.183Z,94743.88
2023-03-26T09:21:28.040Z,94727.31
2023-03-26T09:24:27.927Z,94735.09
2023-03-26T09:26:55.298Z,94739.03
2023-03-26T09:29:40.869Z,94737.19
2023-03-26T09:32:08.096Z,94729.88
2023-03-26T09:35:09.591Z,94723.91
2023-03-26T09:38:11.595Z,94731.66
2023-03-26T09:40:58.023Z,94730.00
2023-03-26T09:43:31.355Z,94724.97
2023-03-26T09:46:08.441Z,94717.59
2023-03-26T09:48:38.305Z,94713.25
2023-03-26T09:51:08.067Z,94712.69
2023-03-26T09:53:41.161Z,94707.09
2023-03-26T09:56:14.191Z,94715.13
2023-03-26T09:59:32.258Z,94706.16
2023-03-26T10:02:46.575Z,94711.38
2023-03-26T10:05:41.864Z,94697.94
2023-03-26T10:08:47.587Z,94693.72
2023-03-26T10:11:36.287Z,94677.72
2023-03-26T10:14:19.835Z,94680.13
2023-03-26T10:17:25.910Z,94686.75
2023-03-26T10:20:09.841Z,94673.72
2023-03-26T10:22:48.808Z,94673.31
2023-03-26T10:25:32.168Z,94677.94
2023-03-26T10:28:02.210Z,94654.06
2023-03-26T10:31:07.809Z,94648.66
2023-03-26T10:33:56.549Z,94646.03
2023-03-26T10:36:35.136Z,94639.81
2023-03-26T10:39:36.309Z,94640.00
2023-03-26T10:42:07.920Z,94645.19
2023-03-26T10:45:02.796Z,94640.16
2023-03-26T10:48:03.436Z,94627.91
2023-03-26T10:51:18.379Z,94626.31
2023-03-26T10:54:01.073Z,94633.13
2023-03-26T10:56:34.883Z,94632.72
2023-03-26T10:59:22.507Z,94623.47
2023-03-26T11:02:29.284Z,94609.81
2023-03-26T11:05:38.986Z,94620.59
2023-03-26T11:08:19.140Z,94611.97
2023-03-26T11:11:04.356Z,94609.34
2023-03-26T11:13:46.873Z,94600.88
2023-03-26T11:16:33.986Z,94598.59
2023-03-26T11:19:22.201Z,94596.19
2023-03-26T11:22:03.850Z,94590.19
2023-03-26T11:24:40.845Z,94589.22
2023-03-26T11:27:20.887Z,94585.31
2023-03-26T11:30:22.396Z,94580.59
2023-03-26T11:32:55.750Z,94583.38
2023-03-26T11:35:47.575Z,94582.22
2023-03-26T11:38:33.777Z,94587.63
2023-03-26T11:41:08.226Z,94576.56
2023-03-26T11:44:03.634Z,94561.81
2023-03-26T11:46:33.873Z,94561.44
2023-03-26T11:49:09.470Z,94556.19
2023-03-26T11:51:38.527Z,94540.16
2023-03-26T11:54:06.580Z,94542.03
2023-03-26T11:57:05.410Z,94521.72
2023-03-26T11:59:45.194Z,94520.78
2023-03-26T12:02:24.933Z,94516.09
2023-03-26T12:04:55.683Z,94512.03
2023-03-26T12:07:34.022Z,94510.28
2023-03-26T12:10:18.684Z,94498.19
2023-03-26T12:12:47.902Z,94508.56
2023-03-26T12:15:17.355Z,94503.09
2023-03-26T12:17:45.455Z,94496.31
2023-03-26T12:20:26.577Z,94488.97
2023-03-26T12:23:02.269Z,94492.75
2023-03-26T12:25:42.801Z,94481.78
2023-03-26T12:28:19.783Z,94481.69
2023-03-26T12:31:01.284Z,94473.84
2023-03-26T12:33:34.484Z,94486.13
2023-03-26T12:36:37.201Z,94463.03
2023-03-26T12:40:06.854Z,94464.69
2023-03-26T12:44:50.756Z,94462.56
2023-03-26T12:45:24.657Z,94456.00
2023-03-26T12:48:00.156Z,94454.69
2023-03-26T12:50:58.023Z,94450.28
2023-03-26T12:53:44.872Z,94453.22
2023-03-26T12:56:38.774Z,94437.84
2023-03-26T12:59:18.661Z,94444.63
2023-03-26T13:02:12.303Z,94439.69
2023-03-26T13:05:05.647Z,94452.94
2023-03-26T13:07:34.490Z,94444.78
2023-03-26T13:10:01.476Z,94442.59
2023-03-26T13:12:58.458Z,94437.78
2023-03-26T13:15:33.328Z,94421.78
2023-03-26T13:18:21.797Z,94429.63
2023-03-26T13:20:55.140Z,94429.03
2023-03-26T13:23:56.050Z,94423.66
2023-03-26T13:26:47.453Z,94428.69
2023-03-26T13:29:26.436Z,94418.41
2023-03-26T13:31:53.552Z,94434.81
2023-03-26T13:34:48.122Z,94442.28
2023-03-26T13:37:45.713Z,94422.50
2023-03-26T13:40:36.809Z,94430.00
2023-03-26T13:43:38.283Z,94418.44
2023-03-26T13:46:17.174Z,94429.44
2023-03-26T13:48:56.376Z,94430.97
2023-03-26T13:51:42.081Z,94420.41
2023-03-26T13:54:24.525Z,94418.13
2023-03-26T13:57:00.149Z,94400.63
2023-03-26T13:59:36.274Z,94412.94
2023-03-26T14:02:28.467Z,94401.88
2023-03-26T14:05:04.989Z,94411.16
2023-03-26T14:07:42.150Z,94408.16
2023-03-26T14:10:15.415Z,94397.19
2023-03-26T14:13:06.790Z,94391.19
2023-03-26T14:15:50.658Z,94375.81
2023-03-26T14:18:32.688Z,94388.25
2023-03-26T14:21:21.965Z,94389.06
2023-03-26T14:24:23.340Z,94376.50
2023-03-26T14:26:59.643Z,94380.41
2023-03-26T14:29:56.712Z,94385.09
2023-03-26T14:32:39.665Z,94380.63
2023-03-26T14:35:20.546Z,94385.16
2023-03-26T14:38:18.392Z,94379.69
2023-03-26T14:41:13.455Z,94367.28
2023-03-26T14:44:04.557Z,94370.94
2023-03-26T14:47:04.804Z,94370.22
2023-03-26T14:49:47.739Z,94361.22
2023-03-26T14:52:50.987Z,94371.38
2023-03-26T14:55:46.100Z,94371.97
2023-03-26T14:58:36.587Z,94372.72
2023-03-26T15:01:51.505Z,94366.59
2023-03-26T15:04:30.193Z,94376.25
2023-03-26T15:07:05.996Z,94372.72
2023-03-26T15:09:49.897Z,94373.75
2023-03-26T15:13:07.963Z,94377.28
2023-03-26T15:16:17.897Z,94373.91
2023-03-26T15:19:19.070Z,94368.28
2023-03-26T15:22:31.492Z,94374.91
2023-03-26T15:25:24.704Z,94368.88
2023-03-26T15:28:27.226Z,94363.75
2023-03-26T15:31:11.648Z,94367.41
2023-03-26T15:34:03.407Z,94369.41
2023-03-26T15:36:54.533Z,94383.00
2023-03-26T15:40:07.564Z,94377.06
2023-03-26T15:43:14.072Z,94385.22
2023-03-26T15:46:37.859Z,94387.78
2023-03-26T15:49:25.699Z,94381.41
2023-03-26T15:52:15.503Z,94390.81
2023-03-26T15:55:01.538Z,94385.28
2023-03-26T15:57:39.403Z,94390.09
2023-03-26T16:00:25.423Z,94388.38
2023-03-26T16:02:58.438Z,94382.00
2023-03-26T16:05:53.703Z,94381.03
2023-03-26T16:08:47.091Z,94388.97
2023-03-26T16:11:15.674Z,94390.41
2023-03-26T16:14:04.245Z,94388.66
2023-03-26T16:16:56.545Z,94392.50
2023-03-26T16:19:23.461Z,94400.75
2023-03-26T16:22:04.556Z,94403.41
2023-03-26T16:24:35.494Z,94397.44
2023-03-26T16:27:10.838Z,94400.47
2023-03-26T16:30:30.602Z,94406.28
2023-03-26T16:33:11.096Z,94404.88
2023-03-26T16:36:15.483Z,94407.94
2023-03-26T16:39:00.950Z,94408.78
2023-03-26T16:41:34.986Z,94409.97
2023-03-26T16:44:17.521Z,94405.97
2023-03-26T16:47:16.816Z,94400.41
2023-03-26T16:50:14.812Z,94412.59
2023-03-26T16:52:52.281Z,94403.63
2023-03-26T16:55:25.774Z,94404.03
2023-03-26T16:58:16.141Z,94402.81
2023-03-26T17:01:04.713Z,94406.84
2023-03-26T17:03:54.799Z,94408.69
2023-03-26T17:06:36.766Z,94413.97
2023-03-26T17:09:14.313Z,94416.59
2023-03-26T17:11:41.173Z,94419.41
2023-03-26T17:14:29.674Z,94415.41
2023-03-26T17:17:02.886Z,94424.63
2023-03-26T17:19:41.969Z,94421.44
2023-03-26T17:22:35.577Z,94429.44
2023-03-26T17:25:27.325Z,94425.00
2023-03-26T17:28:21.478Z,94437.38
2023-03-26T17:31:02.298Z,94437.34
2023-03-26T17:33:36.339Z,94424.06
2023-03-26T17:36:12.615Z,94434.03
2023-03-26T17:38:39.569Z,94437.41
2023-03-26T17:41:15.804Z,94428.34
2023-03-26T17:43:44.036Z,94431.50
2023-03-26T17:46:22.193Z,94422.84
2023-03-26T17:49:11.802Z,94424.59
2023-03-26T17:51:56.679Z,94426.13
2023-03-26T17:54:30.836Z,94420.53
2023-03-26T17:57:04.419Z,94408.69
2023-03-26T17:59:33.499Z,94401.03
2023-03-26T18:02:03.783Z,94419.25
2023-03-26T18:04:45.414Z,94412.47
2023-03-26T18:07:37.983Z,94422.00
2023-03-26T18:10:29.235Z,94415.44
2023-03-26T18:13:19.236Z,94420.38
2023-03-26T18:15:55.588Z,94419.19
2023-03-26T18:18:28.388Z,94413.59
2023-03-26T18:20:58.535Z,94412.38
2023-03-26T18:23:30.406Z,94423.53
2023-03-26T18:26:15.699Z,94414.66
2023-03-26T18:28:50.616Z,94411.19
2023-03-26T18:31:24.204Z,94409.75
2023-03-26T18:33:56.103Z,94408.06
2023-03-26T18:36:27.972Z,94413.56
2023-03-26T18:39:04.464Z,94399.28
2023-03-26T18:41:37.552Z,94404.66
2023-03-26T18:44:06.740Z,94400.00
2023-03-26T18:46:34.331Z,94392.66
2023-03-26T18:49:03.223Z,94388.47
2023-03-26T18:51:33.009Z,94386.44
2023-03-26T18:54:06.224Z,94382.09
2023-03-26T18:56:36.938Z,94380.44
2023-03-26T18:59:07.032Z,94386.09
2023-03-26T19:01:37.645Z,94376.22
2023-03-26T19:04:07.738Z,94373.91
2023-03-26T19:06:38.891Z,94370.25
2023-03-26T19:09:23.825Z,94365.41
2023-03-26T19:11:58.508Z,94347.81
2023-03-26T19:14:27.307Z,94353.88
2023-03-26T19:17:00.312Z,94355.13
2023-03-26T19:19:32.403Z,94353.53
2023-03-26T19:21:59.784Z,94353.25
2023-03-26T19:24:54.562Z,94349.69
2023-03-26T19:27:46.666Z,94346.03
2023-03-26T19:30:39.615Z,94341.03
2023-03-26T19:33:18.656Z,94337.25
2023-03-26T19:35:51.009Z,94333.44
2023-03-26T19:38:27.387Z,94337.31
2023-03-26T19:41:22.836Z,94330.03
2023-03-26T19:44:00.650Z,94331.03
2023-03-26T19:46:29.425Z,94324.00
2023-03-26T19:48:57.907Z,94319.34
2023-03-26T19:51:34.895Z,94320.06
2023-03-26T19:54:16.203Z,94316.69
2023-03-26T19:56:43.750Z,94307.91
2023-03-26T19:59:11.030Z,94301.50
2023-03-26T20:01:38.103Z,94302.84
2023-03-26T20:04:06.964Z,94312.22
2023-03-26T20:06:43.090Z,94305.34
2023-03-26T20:11:56.533Z,94308.19
2023-03-26T20:14:26.753Z,94315.78
2023-03-26T20:16:55.399Z,94307.50
2023-03-26T20:19:23.043Z,94319.09
2023-03-26T20:21:51.547Z,94310.53
2023-03-26T20:24:19.444Z,94302.94
2023-03-26T20:26:46.718Z,94306.69
2023-03-26T20:29:14.976Z,94291.69
2023-03-26T20:31:51.345Z,94297.66
2023-03-26T20:34:23.655Z,94302.22
2023-03-26T20:37:01.130Z,94307.94
2023-03-26T20:39:30.157Z,94298.41
2023-03-26T20:41:57.272Z,94298.13
2023-03-26T20:44:27.395Z,94299.97
2023-03-26T20:46:56.375Z,94297.91
2023-03-26T20:49:23.554Z,94291.06
2023-03-26T20:51:50.576Z,94299.09
2023-03-26T20:54:23.571Z,94298.28
2023-03-26T20:56:51.317Z,94296.84
2023-03-26T20:59:27.013Z,94298.34
2023-03-26T21:01:56.990Z,94286.50
2023-03-26T21:04:25.142Z,94288.91
2023-03-26T21:06:57.639Z,94286.03
2023-03-26T21:09:35.737Z,94289.34
2023-03-26T21:12:17.038Z,94284.00
2023-03-26T21:14:44.875Z,94281.16
2023-03-26T21:17:18.551Z,94273.63
2023-03-26T21:19:46.389Z,94288.59
2023-03-26T21:22:20.240Z,94278.84
2023-03-26T21:25:05.704Z,94284.19
2023-03-26T21:27:41.704Z,94288.44
2023-03-26T21:30:16.622Z,94271.09
2023-03-26T21:32:45.720Z,94279.56
2023-03-26T21:35:15.151Z,94259.44
2023-03-26T21:37:44.389Z,94253.22
2023-03-26T21:40:16.927Z,94253.03
2023-03-26T21:42:46.581Z,94245.50
2023-03-26T21:45:14.584Z,94238.09
2023-03-26T21:47:42.549Z,94236.50
2023-03-26T21:50:12.027Z,94228.94
2023-03-26T21:52:47.143Z,94211.47
2023-03-26T21:55:20.547Z,94215.50
2023-03-26T21:58:38.364Z,94218.25
2023-03-26T22:01:19.588Z,94213.44
2023-03-26T22:03:58.865Z,94211.53
2023-03-26T22:06:25.922Z,94219.16
2023-03-26T22:08:53.028Z,94224.69
2023-03-26T22:11:20.181Z,94225.19
2023-03-26T22:13:47.133Z,94228.28
2023-03-26T22:16:14.120Z,94218.50
2023-03-26T22:18:43.918Z,94212.69
2023-03-26T22:21:10.886Z,94211.41
2023-03-26T22:23:38.916Z,94186.78
2023-03-26T22:26:06.421Z,94198.06
2023-03-26T22:28:33.669Z,94175.63
2023-03-26T22:31:08.895Z,94187.69
2023-03-26T22:33:36.338Z,94178.84
2023-03-26T22:36:03.378Z,94181.91
2023-03-26T22:38:30.345Z,94175.81
2023-03-26T22:40:58.377Z,94189.19
2023-03-26T22:43:25.430Z,94178.13
2023-03-26T22:45:54.437Z,94176.88
2023-03-26T22:48:23.700Z,94162.84
2023-03-26T22:50:59.727Z,94154.03
2023-03-26T22:53:26.632Z,94151.19
2023-03-26T22:55:53.621Z,94153.13
2023-03-26T22:58:20.570Z,94153.75
2023-03-26T23:00:47.646Z,94151.19
2023-03-26T23:03:14.559Z,94144.25
2023-03-26T23:05:41.477Z,94133.50
2023-03-26T23:08:08.419Z,94142.47
2023-03-26T23:10:36.558Z,94130.28
2023-03-26T23:13:03.503Z,94133.56
2023-03-26T23:15:30.764Z,94135.84
2023-03-26T23:17:59.081Z,94147.47
2023-03-26T23:20:25.991Z,94135.22
2023-03-26T23:22:52.983Z,94119.28
2023-03-26T23:25:20.250Z,94135.22
2023-03-26T23:27:48.567Z,94123.63
2023-03-26T23:30:16.942Z,94122.66
2023-03-26T23:32:44.217Z,94125.88
2023-03-26T23:35:11.446Z,94113.28
2023-03-26T23:37:38.406Z,94096.22
2023-03-26T23:40:10.586Z,94105.50
2023-03-26T23:42:38.022Z,94108.88
2023-03-26T23:45:06.757Z,94098.63
2023-03-26T23:47:34.759Z,94107.44
2023-03-26T23:50:05.281Z,94104.38
2023-03-26T23:52:32.302Z,94103.66
2023-03-26T23:55:02.489Z,94084.47
2023-03-26T23:57:30.720Z,94084.81
2023-03-26T23:59:57.679Z,94057.72
